• Join FlightAware (Why Join?)
  • Login
  • US Flag 
03:14PM EDT


 

Airport Tracker/Info


-or-


 

Live Flight TrackerFlight Track Log ✈ NKS971 ✈ 24-Apr-2013 ✈ KFLL - KDFW

Flight Track Log - Related Links

Times and Time Zones

All times are in EDT time to prevent confusion due to time zone crossing. See the NKS971 flight status page for this flight to view local times or setup timezone preferences in your user account.

Time Position Orientation Groundspeed Altitude Reporting Facility
EDT Latitude Longitude Course Direction KTS MPH feet Rate Location/Type
08:26PM 26.0770 -80.1360 91° East 158 182 500  Level FlightAware
08:26PM 26.0790 -80.0870 87° East 197 227 2,000 1,500 Climbing FlightAware
08:27PM 26.0810 -80.0710 82° East 213 245 2,300 1,920 Climbing FlightAware
08:28PM 26.1110 -80.0160 59° Northeast 256 295 4,300 1,800 Climbing FlightAware
08:28PM 26.1460 -80.0230 350° North 260 299 4,900 1,080 Climbing FlightAware
08:29PM 26.1730 -80.0400 331° Northwest 258 297 5,300 1,620 Climbing FlightAware
08:29PM 26.1840 -80.0540 311° West 265 305 6,000 2,880 Climbing FlightAware
08:29PM 26.2000 -80.0920 295° West 276 318 7,500 2,580 Climbing FlightAware
08:30PM 26.2150 -80.1280 295° West 293 337 8,400 1,500 Climbing FlightAware
08:30PM 26.2330 -80.1690 296° West 285 328 8,900 720 Climbing FlightAware
08:31PM 26.2430 -80.2000 290° West 282 325 9,100 1,500 Climbing FlightAware
08:31PM 26.2510 -80.2610 278° West 298 343 10,700 1,500 Climbing FlightAware
08:32PM 26.2610 -80.3310 279° West 349 402 11,300 1,500 Climbing FlightAware
08:33PM 26.2710 -80.4040 279° West 362 417 12,700 2,100 Climbing FlightAware
08:33PM 26.2810 -80.4740 279° West 369 425 14,100 2,100 Climbing FlightAware
08:34PM 26.2980 -80.5650 282° West 380 437 15,700 2,160 Climbing FlightAware
08:34PM 26.3130 -80.5900 304° West 381 438 16,300 2,160 Climbing FlightAware
08:35PM 26.3580 -80.6610 305° West 378 435 17,900 2,040 Climbing FlightAware
08:36PM 26.3990 -80.7270 305° West 382 440 19,200 1,800 Climbing FlightAware
08:37PM 26.4470 -80.8010 306° West 388 447 20,500 1,620 Climbing FlightAware
08:37PM 26.4910 -80.8680 306° West 394 453 21,500 1,380 Climbing FlightAware
08:38PM 26.5390 -80.9430 306° West 401 461 22,500 1,440 Climbing FlightAware
08:39PM 26.5840 -81.0110 307° West 403 464 23,600 1,800 Climbing FlightAware
08:39PM 26.6270 -81.0780 306° West 398 458 24,900 1,440 Climbing FlightAware
08:40PM 26.6740 -81.1520 305° West 403 464 25,700 1,200 Climbing FlightAware
08:41PM 26.7200 -81.2230 306° West 412 474 26,600 1,320 Climbing FlightAware
08:41PM 26.7710 -81.3020 306° West 412 474 27,600 1,200 Climbing FlightAware
08:42PM 26.8290 -81.3950 305° West 413 475 28,600 1,320 Climbing FlightAware
08:43PM 26.8690 -81.4720 300° West 408 470 29,700 1,260 Climbing FlightAware
08:44PM 26.9070 -81.5490 299° West 405 466 30,400 1,020 Climbing FlightAware
08:44PM 26.9480 -81.6310 299° West 408 470 31,200 1,260 Climbing FlightAware
08:45PM 26.9880 -81.7120 299° West 398 458 32,200 1,200 Climbing FlightAware
08:46PM 27.0230 -81.7830 299° West 397 457 32,900 1,020 Climbing FlightAware
08:47PM 27.0600 -81.8570 299° West 396 456 33,600 600 Climbing FlightAware
08:47PM 27.1000 -81.9370 299° West 406 467 33,800 480 Climbing FlightAware
08:48PM 27.1340 -82.0060 299° West 406 467 34,300 780 Climbing FlightAware
08:49PM 27.1730 -82.0850 299° West 406 467 34,900 720 Climbing FlightAware
08:49PM 27.2170 -82.1740 299° West 409 471 35,400 660 Climbing FlightAware
08:50PM 27.2520 -82.2450 299° West 406 467 35,900 420 Climbing FlightAware
08:51PM 27.2940 -82.3310 299° West 388 447 36,000 60 Climbing FlightAware
08:51PM 27.3260 -82.3970 299° West 392 451 36,000  Level FlightAware
08:52PM 27.3620 -82.4710 299° West 397 457 36,000  Level FlightAware
08:53PM 27.3990 -82.5540 297° West 394 453 36,000  Level FlightAware
08:54PM 27.4200 -82.6320 287° West 382 440 36,000  Level FlightAware
08:54PM 27.4360 -82.7200 282° West 379 436 36,000  Level FlightAware
08:55PM 27.4510 -82.7970 282° West 380 437 36,000  Level FlightAware
08:56PM 27.4670 -82.8830 282° West 375 432 36,000  Level FlightAware
08:56PM 27.4810 -82.9580 282° West 373 429 36,000 -120 Level FlightAware
08:57PM 27.4950 -83.0340 282° West 373 429 35,900  Descending FlightAware
08:58PM 27.5100 -83.1210 281° West 373 429 36,000 60 Climbing FlightAware
08:58PM 27.5240 -83.1970 282° West 373 429 36,000  Level FlightAware
08:59PM 27.5380 -83.2690 282° West 373 429 36,000  Level FlightAware
09:00PM 27.5540 -83.3580 281° West 372 428 36,000  Level FlightAware
09:01PM 27.5690 -83.4440 281° West 371 427 36,000  Level FlightAware
09:01PM 27.5820 -83.5170 281° West 371 427 36,000  Level FlightAware
09:02PM 27.5970 -83.5950 282° West 370 426 36,000  Level FlightAware
09:03PM 27.6110 -83.6780 281° West 369 425 36,000  Level FlightAware
09:03PM 27.6250 -83.7530 282° West 368 423 36,000  Level FlightAware
09:04PM 27.6400 -83.8400 281° West 366 421 36,000  Level FlightAware
09:05PM 27.6510 -83.9030 281° West 364 419 36,000  Level FlightAware
09:05PM 27.6660 -83.9860 282° West 364 419 36,000  Level FlightAware
09:06PM 27.6810 -84.0720 281° West 365 420 36,000  Level FlightAware
09:07PM 27.6940 -84.1440 282° West 365 420 36,000  Level FlightAware
09:08PM 27.7070 -84.2200 281° West 366 421 36,000  Level FlightAware
09:08PM 27.7200 -84.2940 281° West 367 422 36,000  Level FlightAware
09:09PM 27.7350 -84.3820 281° West 368 423 36,000  Level FlightAware
09:10PM 27.7500 -84.4660 281° West 368 423 36,000  Level FlightAware
09:10PM 27.7630 -84.5410 281° West 366 421 36,000  Level FlightAware
09:11PM 27.7770 -84.6250 281° West 365 420 36,000  Level FlightAware
09:12PM 27.7910 -84.7020 282° West 365 420 36,000  Level FlightAware
09:12PM 27.8030 -84.7740 281° West 367 422 36,000  Level FlightAware
09:13PM 27.8150 -84.8490 280° West 367 422 36,000  Level FlightAware
09:14PM 27.8310 -84.9290 283° West 365 420 36,000  Level FlightAware
09:15PM 27.8620 -85.0080 294° West 361 415 36,000  Level FlightAware
09:15PM 27.8880 -85.0690 296° West 360 414 36,000  Level FlightAware
09:16PM 27.9200 -85.1460 295° West 374 430 36,000  Level FlightAware
09:17PM 27.9530 -85.2260 295° West 382 440 36,000  Level FlightAware
09:17PM 27.9740 -85.2740 296° West 382 440 36,000  Level FlightAware
09:18PM 28.0220 -85.3890 295° West 381 438 36,000  Level FlightAware
09:19PM 28.0470 -85.4510 295° West 381 438 36,000  Level FlightAware
09:20PM 28.0720 -85.5120 295° West 381 438 36,000  Level FlightAware
09:20PM 28.1040 -85.5890 295° West 381 438 36,000  Level FlightAware
09:21PM 28.1290 -85.6510 295° West 381 438 36,000  Level FlightAware
09:22PM 28.1550 -85.7120 296° West 381 438 36,000  Level FlightAware
09:22PM 28.1800 -85.7740 295° West 381 438 36,000  Level FlightAware
09:23PM 28.2050 -85.8360 295° West 381 438 36,000  Level FlightAware
09:24PM 28.2370 -85.9130 295° West 381 438 36,000  Level FlightAware
09:25PM 28.2620 -85.9740 295° West 381 438 36,000  Level FlightAware
09:25PM 28.2880 -86.0360 295° West 381 438 36,000  Level FlightAware
09:26PM 28.3130 -86.0980 295° West 381 438 36,000  Level FlightAware
09:27PM 28.3380 -86.1590 295° West 381 438 36,000  Level FlightAware
09:27PM 28.3700 -86.2370 295° West 381 438 36,000  Level FlightAware
09:29PM 28.4928 -86.5344 294° West 365 420 36,100 360 Climbing Jacksonville Center
09:30PM 28.5356 -86.6378 295° West 365 420 36,900 360 Climbing Jacksonville Center
09:31PM 28.5744 -86.7361 294° West 354 407 36,900  Level Jacksonville Center
09:32PM 28.6172 -86.8392 295° West 354 407 36,900  Level Jacksonville Center
09:33PM 28.6619 -86.9453 296° West 360 414 37,000  Climbing Jacksonville Center
09:34PM 28.7025 -87.0461 295° West 360 414 36,900  Descending Jacksonville Center
09:35PM 28.6557 -86.9640 294° West  Level FlightAware Approximate
09:36PM 28.7881 -87.2503 296° West 365 420 37,000  Level Houston Center
09:37PM 28.8336 -87.3483 298° West 367 422 37,000  Level Houston Center
09:38PM 28.8881 -87.4536 301° West 368 423 37,000 -60 Level Houston Center
09:39PM 28.9400 -87.5550 300° West 369 425 36,900 -300 Descending Houston Center
09:45PM 29.2630 -88.2110 300° West 395 455 35,000 -360 Descending FlightAware
09:46PM 29.2900 -88.2680 299° West 396 456 34,800 -660 Descending FlightAware
09:47PM 29.3450 -88.3790 300° West 404 465 34,000 -480 Descending FlightAware
09:48PM 29.3900 -88.4710 299° West 403 464 34,000  Level FlightAware
09:48PM 29.4210 -88.5350 299° West 398 458 34,000  Level FlightAware
09:49PM 29.4600 -88.6150 299° West 398 458 34,000  Level FlightAware
09:50PM 29.4970 -88.6910 299° West 398 458 34,000  Level FlightAware
09:50PM 29.5280 -88.7560 299° West 397 457 34,000  Level FlightAware
09:51PM 29.5640 -88.8320 299° West 397 457 34,000  Level FlightAware
09:52PM 29.6110 -88.9270 300° West 400 460 34,000  Level FlightAware
09:52PM 29.6450 -89.0000 298° West 400 460 34,000  Level FlightAware
09:53PM 29.6740 -89.0640 298° West 400 460 34,000  Level FlightAware
09:54PM 29.7040 -89.1280 298° West 400 460 34,000  Level FlightAware
09:55PM 29.7410 -89.2080 298° West 400 460 34,000  Level FlightAware
09:55PM 29.7900 -89.3000 302° West 399 459 34,000  Level FlightAware
09:56PM 29.8250 -89.3770 298° West 399 459 34,000  Level FlightAware
09:57PM 29.8620 -89.4570 298° West 399 459 34,000  Level FlightAware
09:57PM 29.9130 -89.5590 300° West 394 453 34,000  Level FlightAware
09:58PM 29.9460 -89.6280 299° West 394 453 34,000  Level FlightAware
09:59PM 29.9940 -89.7300 299° West 396 456 34,000  Level FlightAware
10:00PM 30.0510 -89.8510 299° West 398 458 34,000  Level FlightAware
10:01PM 30.0970 -89.9470 299° West 398 458 34,000  Level FlightAware
10:02PM 30.1340 -90.0270 298° West 398 458 34,000  Level FlightAware
10:02PM 30.1660 -90.0950 299° West 400 460 34,000  Level FlightAware
10:03PM 30.2080 -90.1850 298° West 401 461 34,000  Level FlightAware
10:04PM 30.2390 -90.2520 298° West 402 463 34,000  Level FlightAware
10:06PM 30.3770 -90.5500 298° West 400 460 34,000  Level FlightAware
10:07PM 30.4030 -90.6050 299° West 401 461 34,000  Level FlightAware
10:08PM 30.4690 -90.7480 298° West 401 461 34,000  Level FlightAware
10:09PM 30.5110 -90.8400 298° West 400 460 34,000  Level FlightAware
10:09PM 30.5460 -90.9150 298° West 398 458 34,000  Level FlightAware
10:10PM 30.5810 -90.9950 297° West 398 458 34,000  Level FlightAware
10:11PM 30.6170 -91.0712 299° West 397 457 34,000 -120 Level FlightAware ADS-B
10:12PM 30.6606 -91.1697 299° West 398 458 33,900 -60 Descending Houston Center
10:13PM 30.7117 -91.2819 298° West 396 456 33,900  Level Houston Center
10:14PM 30.7642 -91.3983 298° West 394 453 34,000  Climbing Houston Center
10:15PM 30.8144 -91.5111 297° West 395 455 34,000  Level Houston Center
10:20PM 31.0963 -92.1367 297° West 393 452 34,000  Level FlightAware ADS-B
10:21PM 31.1210 -92.1926 297° West 392 451 34,000  Level FlightAware ADS-B
10:23PM 31.2609 -92.5110 297° West 390 449 34,000  Level FlightAware ADS-B
10:24PM 31.2879 -92.5826 294° West 389 448 34,000  Level FlightAware ADS-B
10:25PM 31.3102 -92.6418 294° West 389 448 34,000  Level FlightAware ADS-B
10:25PM 31.3325 -92.7007 294° West 388 447 34,000  Level FlightAware ADS-B
10:26PM 31.3565 -92.7641 294° West 389 448 34,000  Level FlightAware ADS-B
10:26PM 31.3792 -92.8244 294° West 389 448 34,000  Level FlightAware ADS-B
10:27PM 31.4012 -92.8829 294° West 394 453 34,000  Level FlightAware ADS-B
10:27PM 31.4236 -92.9425 294° West 395 455 34,000  Level FlightAware ADS-B
10:28PM 31.4466 -93.0040 294° West 395 455 34,000  Level FlightAware ADS-B
10:28PM 31.4762 -93.0835 294° West 395 455 34,000  Level FlightAware ADS-B
10:29PM 31.5006 -93.1486 294° West 395 455 34,000  Level FlightAware ADS-B
10:30PM 31.5432 -93.2627 294° West 394 453 34,000  Level FlightAware ADS-B
10:30PM 31.5666 -93.3260 293° West 393 452 34,000  Level FlightAware ADS-B
10:31PM 31.5897 -93.3884 294° West 393 452 34,000  Level FlightAware ADS-B
10:32PM 31.6119 -93.4483 294° West 394 453 34,000  Level FlightAware ADS-B
10:32PM 31.6339 -93.5076 294° West 393 452 34,000  Level FlightAware ADS-B
10:34PM 31.7052 -93.7012 293° West 393 452 34,000  Level FlightAware ADS-B
10:34PM 31.7271 -93.7611 293° West 392 451 34,000  Level FlightAware ADS-B
10:35PM 31.7457 -93.8128 293° West 392 451 34,000  Level FlightAware ADS-B
10:35PM 31.7539 -93.8458 286° West 389 448 34,000  Level FlightAware ADS-B
10:35PM 31.7658 -93.9080 283° West 387 445 34,000  Level FlightAware ADS-B
10:36PM 31.7780 -93.9700 283° West 388 447 34,000  Level FlightAware ADS-B
10:36PM 31.7900 -94.0310 283° West 387 445 34,000  Level FlightAware ADS-B
10:37PM 31.8022 -94.0933 283° West 388 447 34,000  Level FlightAware ADS-B
10:37PM 31.8094 -94.1299 283° West 388 447 34,000  Level FlightAware ADS-B
10:38PM 31.8165 -94.1661 283° West 388 447 34,000  Level FlightAware ADS-B
10:38PM 31.8242 -94.2061 283° West 388 447 34,000  Level FlightAware ADS-B
10:38PM 31.8284 -94.2277 283° West 388 447 34,000  Level FlightAware ADS-B
10:38PM 31.8376 -94.2752 283° West 388 447 34,000  Level FlightAware ADS-B
10:39PM 31.8407 -94.2909 283° West 387 445 34,000  Level FlightAware ADS-B
10:39PM 31.8503 -94.3405 283° West 387 445 34,000  Level FlightAware ADS-B
10:39PM 31.8529 -94.3540 283° West 387 445 34,000  Level FlightAware ADS-B
10:40PM 31.8639 -94.4110 283° West 386 444 34,000  Level FlightAware ADS-B
10:40PM 31.8652 -94.4173 284° West 385 443 34,000  Level FlightAware ADS-B
10:40PM 31.8756 -94.4714 283° West 385 443 34,000  Level FlightAware ADS-B
10:40PM 31.8771 -94.4791 283° West 385 443 34,000  Level FlightAware ADS-B
10:41PM 31.8883 -94.5374 283° West 385 443 34,000  Level FlightAware ADS-B
10:41PM 31.8894 -94.5435 282° West 385 443 34,000  Level FlightAware ADS-B
10:41PM 31.9014 -94.6061 283° West 385 443 34,000  Level FlightAware ADS-B
10:41PM 31.9031 -94.6147 283° West 385 443 34,000  Level FlightAware ADS-B
10:42PM 31.9135 -94.6685 283° West 385 443 34,000  Level FlightAware ADS-B
10:42PM 31.9195 -94.6999 283° West 385 443 34,000  Level FlightAware ADS-B
10:42PM 31.9256 -94.7317 283° West 385 443 34,000  Level FlightAware ADS-B
10:42PM 31.9314 -94.7626 282° West 385 443 34,000  Level FlightAware ADS-B
10:43PM 31.9379 -94.7965 283° West 385 443 34,000  Level FlightAware ADS-B
10:43PM 31.9433 -94.8250 283° West 385 443 34,000  Level FlightAware ADS-B
10:43PM 31.9496 -94.8585 283° West 385 443 34,000  Level FlightAware ADS-B
10:43PM 31.9549 -94.8866 283° West 385 443 34,000  Level FlightAware ADS-B
10:44PM 31.9612 -94.9204 282° West 384 442 34,000 -420 Level FlightAware ADS-B
10:44PM 31.9668 -94.9497 283° West 384 442 33,800 -780 Descending FlightAware ADS-B
10:44PM 31.9733 -94.9842 283° West 381 438 33,600 -840 Descending FlightAware ADS-B
10:44PM 31.9784 -95.0112 283° West 381 438 33,400 -1,020 Descending FlightAware ADS-B
10:45PM 31.9848 -95.0459 282° West 384 442 33,100 -1,080 Descending FlightAware ADS-B
10:45PM 31.9918 -95.0830 283° West 386 444 32,800 -1,020 Descending FlightAware ADS-B
10:45PM 31.9964 -95.1073 283° West 387 445 32,600 -960 Descending FlightAware ADS-B
10:46PM 32.0039 -95.1473 282° West 386 444 32,300 -1,020 Descending FlightAware ADS-B
10:46PM 32.0083 -95.1710 282° West 385 443 32,100 -1,020 Descending FlightAware ADS-B
10:46PM 32.0177 -95.2213 282° West 384 442 31,700 -960 Descending FlightAware ADS-B
10:46PM 32.0202 -95.2353 282° West 383 441 31,600 -1,020 Descending FlightAware ADS-B
10:47PM 32.0290 -95.2827 282° West 380 437 31,200 -1,080 Descending FlightAware ADS-B
10:47PM 32.0330 -95.3041 282° West 379 436 31,000 -1,020 Descending FlightAware ADS-B
10:47PM 32.0403 -95.3441 282° West 376 433 30,700 -1,020 Descending FlightAware ADS-B
10:47PM 32.0443 -95.3658 282° West 374 430 30,500 -960 Descending FlightAware ADS-B
10:48PM 32.0561 -95.4296 282° West 371 427 30,000 -960 Descending FlightAware ADS-B
10:48PM 32.0585 -95.4425 282° West 372 428 29,900 -1,080 Descending FlightAware ADS-B
10:49PM 32.0727 -95.5199 282° West 368 423 29,200 -1,500 Descending FlightAware ADS-B
10:49PM 32.0794 -95.5571 282° West 369 425 28,500 -2,040 Descending FlightAware ADS-B
10:49PM 32.0840 -95.5842 281° West 367 422 28,100 -1,980 Descending FlightAware ADS-B
10:49PM 32.0893 -95.6173 281° West 363 418 27,500 -2,160 Descending FlightAware ADS-B
10:50PM 32.0969 -95.6650 281° West 362 417 26,600 -2,160 Descending FlightAware ADS-B
10:50PM 32.0998 -95.6833 281° West 360 414 26,300 -2,220 Descending FlightAware ADS-B
10:50PM 32.1063 -95.7238 281° West 358 412 25,500 -2,160 Descending FlightAware ADS-B
10:51PM 32.1092 -95.7415 281° West 358 412 25,200 -2,220 Descending FlightAware ADS-B
10:51PM 32.1156 -95.7813 281° West 358 412 24,400 -2,400 Descending FlightAware ADS-B
10:51PM 32.1186 -95.8003 281° West 357 411 24,000 -2,220 Descending FlightAware ADS-B
10:52PM 32.1282 -95.8589 281° West 357 411 22,900 -2,280 Descending FlightAware ADS-B
10:52PM 32.1319 -95.8817 281° West 357 411 22,400 -2,400 Descending FlightAware ADS-B
10:52PM 32.1376 -95.9171 281° West 356 410 21,700 -2,280 Descending FlightAware ADS-B
10:52PM 32.1426 -95.9487 281° West 356 410 21,100 -2,100 Descending FlightAware ADS-B
10:53PM 32.1473 -95.9775 281° West 357 411 20,600 -2,160 Descending FlightAware ADS-B
10:53PM 32.1531 -96.0136 281° West 356 410 19,900 -2,280 Descending FlightAware ADS-B
10:53PM 32.1571 -96.0388 281° West 356 410 19,400 -2,280 Descending FlightAware ADS-B
10:54PM 32.1660 -96.0947 281° West 348 400 18,300 -2,340 Descending FlightAware ADS-B
10:54PM 32.1677 -96.1054 281° West 356 410 18,000 -2,520 Descending FlightAware ADS-B
10:54PM 32.1754 -96.1529 281° West 349 402 17,000 -2,340 Descending FlightAware ADS-B
10:55PM 32.1834 -96.2017 281° West 340 391 16,000 -2,340 Descending FlightAware ADS-B
10:55PM 32.1872 -96.2139 290° West 336 387 15,700 -2,160 Descending FlightAware ADS-B
10:55PM 32.1927 -96.2250 300° West 336 387 15,500 -2,040 Descending FlightAware ADS-B
10:56PM 32.2480 -96.2920 314° West 335 386 13,700 -2,040 Descending FlightAware
10:56PM 32.2940 -96.3450 316° Northwest 330 380 12,400 -1,680 Descending FlightAware
10:57PM 32.3340 -96.3930 315° West 297 342 11,500 -1,200 Descending FlightAware
10:58PM 32.3720 -96.4450 311° West 273 314 10,700 -660 Descending FlightAware
10:58PM 32.4040 -96.4930 308° West 277 319 10,600 -1,080 Descending FlightAware
10:59PM 32.4280 -96.5290 308° West 270 311 9,500 -2,160 Descending FlightAware
10:59PM 32.4380 -96.5440 308° West 268 308 9,000 -1,800 Descending FlightAware
11:00PM 32.4580 -96.5740 308° West 269 310 8,300 -1,560 Descending FlightAware
11:00PM 32.4810 -96.6100 307° West 263 303 7,600 -1,500 Descending FlightAware
11:00PM 32.4910 -96.6260 307° West 262 302 7,200 -1,980 Descending FlightAware
11:01PM 32.5100 -96.6550 308° West 270 311 6,300 -2,280 Descending FlightAware
11:01PM 32.5220 -96.6730 308° West 280 322 5,700 -1,740 Descending FlightAware
11:02PM 32.5460 -96.7100 308° West 278 320 5,000 -1,140 Descending FlightAware
11:02PM 32.5650 -96.7390 308° West 273 314 4,700 -360 Descending FlightAware
11:02PM 32.5890 -96.7760 308° West 278 320 4,700  Level FlightAware
11:03PM 32.6010 -96.7950 307° West 277 319 4,700  Level FlightAware
11:03PM 32.6200 -96.8240 308° West 276 318 4,700  Level FlightAware
11:04PM 32.6430 -96.8600 307° West 277 319 4,700 -240 Level FlightAware
11:04PM 32.6630 -96.8880 310° West 275 316 4,500 -1,200 Descending FlightAware
11:05PM 32.6890 -96.9220 312° West 272 313 3,600 -1,800 Descending FlightAware
11:05PM 32.7110 -96.9490 314° West 263 303 2,900 -1,380 Descending FlightAware
11:05PM 32.7220 -96.9630 313° West 256 295 2,700 -420 Descending FlightAware
11:06PM 32.7460 -96.9930 314° West 223 257 2,600 -300 Descending FlightAware
11:06PM 32.7650 -97.0170 313° West 198 228 2,400 -480 Descending FlightAware
11:07PM 32.7830 -97.0270 335° Northwest 152 175 2,200 -780 Descending FlightAware
11:07PM 32.8100 -97.0260 North 136 157 1,500 -900 Descending FlightAware
11:08PM 32.8260 -97.0260 360° North 135 155 1,200 -720 Descending FlightAware
11:08PM 32.8390 -97.0260 360° North 135 155 1,000 -300 Descending FlightAware
11:09PM 32.8530 -97.0260 360° North 135 155 1,000 -480 Level FlightAware
11:09PM 32.8808 -97.0250 360° North 142 163 500 -780 Descending Fort Worth Center
11:11PM 32.8833 -97.0333 308° West  Level FlightAware Approximate
11:18PM 32.8968 -97.0380 308° West  Level Estimated